Main page
METAR-TAF:

METAR-TAF

Airports :

Rimini, Italy

Federico Fellini International Airport

latitude: 44-02N, longitude: 012-37E, elevation: 12 m

Current weather observation

The report was made 26 minutes ago, at 02:15 UTC
Wind 2 kt from the Southwest
Temperature 19°C
Humidity 83%
Pressure 1003 hPa
Visibility 10 km or more
no clouds below 1500 m and no cumulonimbus

METAR: LIPR 260215Z 23002KT CAVOK 19/16 Q1003

Time: 04:41 (02:41 UTC)

Forecast

The report was made 41 minutes ago, at 02:00 UTC
Forecast valid from 26 at 03 UTC to 26 at 12 UTC
Wind 8 kt from the West
Visibility 10 km or more
no clouds below 1500 m and no cumulonimbus

TAF: LIPR 260200Z 2603/2612 27008KT CAVOK

Weather observations and forecasts of more than 4000 airports (METAR and TAF reports).

The available stations are represented by yellow and red dots on the map.

Hover mouse over dot to see the name of the station.

Then click to see weather observations and forecasts.

To change the map : click on the green buttons with a black cross to zoom in, on the green button with a dash to zoom out, or on the green arrows for adjacent maps.


METAR-TAF: